Decoded Metar for LFQG (NEVERS in FRANCE) (IATA:NVS) | Meteo·Mobile Aviation Weather
aviador You're here:

LFQG Decoded Metar

NEVERS in FRANCE
Report Time2018-10-20 06:30:00
UTC Time2018-10-20 06:46:13
Flight Rules lifr LIFR
WindCalm
Visibility0200 m
Phenomena:Fog
Clouds:Overcast 003 Hf
Expected CloudBase > 400 ft AGL from Temp-Dew spread
Ceiling300 ft
Temp04°C (ISA -10)
Dew Point03°C (93% RH)
AAT2.5°C
QNH1026 hPa
Density Alt-928 ft
Elevation594 ft
Report Wrong Elevation
Raw Report
METAR LFQG 200630Z AUTO 00000KT 0200 FG OVC003 04/03 Q1026=

Extra information for LFQG:More info

Metar Taf Metar & Taf Last 4 Metars F.Rules Stats Wind Profile Meteogram Temp Stats Airport Information Weather charts Add Link Nearby VenuesMetar ALERT Operation Metar Decoded Social comments